Time,TemperatureF,DewpointF,PressureIn,WindDirection,WindDirectionDegrees,WindSpeedMPH,WindSpeedGustMPH,Humidity,HourlyPrecipIn,Conditions,Clouds,dailyrainin,SoftwareType,DateUTC
2013-10-28 00:08:00,41.0,40.7,30.15,North,0,0.0,-999.0,99,-99.99,,,0.00,Acu-Link.com,2013-10-28 04:08:00,
2013-10-28 00:24:00,40.8,40.5,30.15,North,0,0.0,-999.0,99,-99.99,,,0.00,Acu-Link.com,2013-10-28 04:24:00,
2013-10-28 00:39:00,40.5,40.2,30.15,North,0,0.0,-999.0,99,-99.99,,,0.00,Acu-Link.com,2013-10-28 04:39:00,
2013-10-28 00:54:00,40.1,39.8,30.15,North,0,0.0,-999.0,99,-99.99,,,0.00,Acu-Link.com,2013-10-28 04:54:00,
2013-10-28 01:09:00,39.9,39.6,30.15,North,0,0.0,-999.0,99,-99.99,,,0.00,Acu-Link.com,2013-10-28 05:09:00,
2013-10-28 01:24:00,39.7,39.4,30.15,North,0,0.0,-999.0,99,-99.99,,,0.00,Acu-Link.com,2013-10-28 05:24:00,
2013-10-28 01:39:00,39.4,39.1,30.15,North,0,0.0,-999.0,99,-99.99,,,0.00,Acu-Link.com,2013-10-28 05:39:00,
2013-10-28 01:55:00,39.6,39.3,30.15,North,0,0.0,-999.0,99,-99.99,,,0.00,Acu-Link.com,2013-10-28 05:55:00,
2013-10-28 02:10:00,39.4,39.1,30.15,North,0,0.0,-999.0,99,-99.99,,,0.00,Acu-Link.com,2013-10-28 06:10:00,
2013-10-28 02:25:00,39.0,38.7,30.16,North,0,0.0,-999.0,99,-99.99,,,0.00,Acu-Link.com,2013-10-28 06:25:00,
2013-10-28 02:40:00,39.0,38.7,30.15,North,0,0.0,-999.0,99,-99.99,,,0.00,Acu-Link.com,2013-10-28 06:40:00,
2013-10-28 02:55:00,38.8,38.5,30.16,North,0,0.0,-999.0,99,-99.99,,,0.00,Acu-Link.com,2013-10-28 06:55:00,
2013-10-28 03:10:00,38.7,38.4,30.16,North,0,0.0,-999.0,99,-99.99,,,0.00,Acu-Link.com,2013-10-28 07:10:00,
2013-10-28 03:25:00,38.7,38.4,30.16,North,0,0.0,-999.0,99,-99.99,,,0.00,Acu-Link.com,2013-10-28 07:25:00,
2013-10-28 03:41:00,38.8,38.5,30.16,North,0,0.0,-999.0,99,-99.99,,,0.00,Acu-Link.com,2013-10-28 07:41:00,
2013-10-28 03:56:00,39.4,39.1,30.16,North,0,0.0,-999.0,99,-99.99,,,0.00,Acu-Link.com,2013-10-28 07:56:00,
2013-10-28 04:11:00,39.7,39.4,30.16,North,0,0.0,-999.0,99,-99.99,,,0.00,Acu-Link.com,2013-10-28 08:11:00,
2013-10-28 04:26:00,40.5,40.2,30.17,North,0,0.0,-999.0,99,-99.99,,,0.00,Acu-Link.com,2013-10-28 08:26:00,
2013-10-28 04:41:00,40.8,40.5,30.17,North,0,0.0,-999.0,99,-99.99,,,0.00,Acu-Link.com,2013-10-28 08:41:00,
2013-10-28 04:56:00,41.0,40.7,30.17,North,0,0.0,-999.0,99,-99.99,,,0.00,Acu-Link.com,2013-10-28 08:56:00,
2013-10-28 05:11:00,41.2,40.9,30.18,North,0,0.0,-999.0,99,-99.99,,,0.00,Acu-Link.com,2013-10-28 09:11:00,
2013-10-28 05:27:00,41.0,40.7,30.18,North,0,0.0,-999.0,99,-99.99,,,0.00,Acu-Link.com,2013-10-28 09:27:00,
2013-10-28 05:42:00,40.8,40.5,30.18,North,0,0.0,-999.0,99,-99.99,,,0.00,Acu-Link.com,2013-10-28 09:42:00,
2013-10-28 05:57:00,41.0,40.7,30.18,North,0,0.0,-999.0,99,-99.99,,,0.00,Acu-Link.com,2013-10-28 09:57:00,
2013-10-28 06:12:00,40.6,40.3,30.19,North,0,0.0,-999.0,99,-99.99,,,0.00,Acu-Link.com,2013-10-28 10:12:00,
2013-10-28 06:27:00,40.6,40.3,30.20,North,0,0.0,-999.0,99,-99.99,,,0.00,Acu-Link.com,2013-10-28 10:27:00,
2013-10-28 06:43:00,41.4,41.1,30.21,North,0,0.0,-999.0,99,-99.99,,,0.00,Acu-Link.com,2013-10-28 10:43:00,
2013-10-28 06:58:00,41.7,41.4,30.21,North,0,0.0,-999.0,99,-99.99,,,0.00,Acu-Link.com,2013-10-28 10:58:00,
2013-10-28 07:13:00,42.3,42.0,30.21,North,0,0.0,-999.0,99,-99.99,,,0.00,Acu-Link.com,2013-10-28 11:13:00,
2013-10-28 07:28:00,42.3,42.0,30.22,North,0,0.0,-999.0,99,-99.99,,,0.00,Acu-Link.com,2013-10-28 11:28:00,
2013-10-28 07:43:00,42.4,42.1,30.23,North,0,0.0,-999.0,99,-99.99,,,0.00,Acu-Link.com,2013-10-28 11:43:00,
2013-10-28 07:59:00,42.4,42.1,30.23,North,0,0.0,-999.0,99,-99.99,,,0.00,Acu-Link.com,2013-10-28 11:59:00,
2013-10-28 08:14:00,43.0,42.7,30.24,North,0,0.0,-999.0,99,-99.99,,,0.00,Acu-Link.com,2013-10-28 12:14:00,
2013-10-28 08:29:00,44.2,43.9,30.24,North,0,0.0,-999.0,99,-99.99,,,0.00,Acu-Link.com,2013-10-28 12:29:00,
2013-10-28 08:44:00,45.7,45.4,30.25,North,0,0.0,-999.0,99,-99.99,,,0.00,Acu-Link.com,2013-10-28 12:44:00,
2013-10-28 08:59:00,47.1,46.8,30.25,North,0,0.0,-999.0,99,-99.99,,,0.00,Acu-Link.com,2013-10-28 12:59:00,
2013-10-28 09:15:00,48.9,48.6,30.26,North,0,0.0,-999.0,99,-99.99,,,0.00,Acu-Link.com,2013-10-28 13:15:00,
2013-10-28 09:30:00,50.7,49.0,30.26,North,0,0.0,-999.0,94,-99.99,,,0.00,Acu-Link.com,2013-10-28 13:30:00,
2013-10-28 09:45:00,52.3,49.8,30.26,North,0,0.0,-999.0,91,-99.99,,,0.00,Acu-Link.com,2013-10-28 13:45:00,
2013-10-28 10:00:00,54.1,51.5,30.26,North,0,0.0,-999.0,91,-99.99,,,0.00,Acu-Link.com,2013-10-28 14:00:00,
2013-10-28 10:15:00,55.4,51.9,30.26,North,0,0.0,-999.0,88,-99.99,,,0.00,Acu-Link.com,2013-10-28 14:15:00,
2013-10-28 10:31:00,56.7,52.2,30.28,North,0,1.7,-999.0,85,-99.99,,,0.00,Acu-Link.com,2013-10-28 14:31:00,
2013-10-28 10:46:00,58.1,51.6,30.27,North,0,0.0,-999.0,79,-99.99,,,0.00,Acu-Link.com,2013-10-28 14:46:00,
2013-10-28 11:01:00,59.7,50.7,30.27,North,0,0.0,-999.0,72,-99.99,,,0.00,Acu-Link.com,2013-10-28 15:01:00,
2013-10-28 11:16:00,59.9,51.6,30.27,North,0,1.1,-999.0,74,-99.99,,,0.00,Acu-Link.com,2013-10-28 15:16:00,
2013-10-28 11:32:00,63.1,52.0,30.27,South,180,0.0,-999.0,67,-99.99,,,0.00,Acu-Link.com,2013-10-28 15:32:00,
2013-10-28 11:47:00,64.9,52.8,30.28,WNW,292,0.0,-999.0,65,-99.99,,,0.00,Acu-Link.com,2013-10-28 15:47:00,
2013-10-28 12:02:00,65.1,53.5,30.27,WNW,292,1.1,-999.0,66,-99.99,,,0.00,Acu-Link.com,2013-10-28 16:02:00,
2013-10-28 12:17:00,65.1,53.9,30.27,WNW,292,1.7,-999.0,67,-99.99,,,0.00,Acu-Link.com,2013-10-28 16:17:00,
2013-10-28 12:32:00,62.8,52.9,30.27,NW,315,1.7,-999.0,70,-99.99,,,0.00,Acu-Link.com,2013-10-28 16:32:00,
2013-10-28 12:48:00,65.5,53.0,30.27,South,180,0.0,-999.0,64,-99.99,,,0.00,Acu-Link.com,2013-10-28 16:48:00,
2013-10-28 13:03:00,65.8,53.3,30.26,West,270,2.7,-999.0,64,-99.99,,,0.00,Acu-Link.com,2013-10-28 17:03:00,
2013-10-28 13:18:00,65.8,52.4,30.25,North,0,0.0,-999.0,62,-99.99,,,0.00,Acu-Link.com,2013-10-28 17:18:00,
2013-10-28 13:33:00,67.1,52.7,30.24,SW,225,2.2,-999.0,60,-99.99,,,0.00,Acu-Link.com,2013-10-28 17:33:00,
2013-10-28 13:48:00,68.9,53.5,30.24,SSE,157,2.7,-999.0,58,-99.99,,,0.00,Acu-Link.com,2013-10-28 17:48:00,
2013-10-28 14:04:00,70.3,53.4,30.23,SE,135,1.7,-999.0,55,-99.99,,,0.00,Acu-Link.com,2013-10-28 18:04:00,
2013-10-28 14:19:00,68.7,52.4,30.23,WSW,247,1.1,-999.0,56,-99.99,,,0.00,Acu-Link.com,2013-10-28 18:19:00,
2013-10-28 14:34:00,68.9,51.1,30.23,SE,135,1.7,-999.0,53,-99.99,,,0.00,Acu-Link.com,2013-10-28 18:34:00,
2013-10-28 14:49:00,68.9,52.1,30.22,SSE,157,1.7,-999.0,55,-99.99,,,0.00,Acu-Link.com,2013-10-28 18:49:00,
2013-10-28 15:04:00,70.3,51.8,30.22,SSW,202,0.0,-999.0,52,-99.99,,,0.00,Acu-Link.com,2013-10-28 19:04:00,
2013-10-28 15:20:00,72.5,52.2,30.21,South,180,1.7,-999.0,49,-99.99,,,0.00,Acu-Link.com,2013-10-28 19:20:00,
2013-10-28 15:35:00,71.8,52.7,30.21,SSW,202,0.0,-999.0,51,-99.99,,,0.00,Acu-Link.com,2013-10-28 19:35:00,
2013-10-28 15:50:00,70.3,52.9,30.21,South,180,0.0,-999.0,54,-99.99,,,0.00,Acu-Link.com,2013-10-28 19:50:00,
2013-10-28 16:05:00,69.8,52.9,30.21,North,0,1.7,-999.0,55,-99.99,,,0.00,Acu-Link.com,2013-10-28 20:05:00,
2013-10-28 16:21:00,69.6,55.1,30.22,North,0,0.0,-999.0,60,-99.99,,,0.00,Acu-Link.com,2013-10-28 20:21:00,
2013-10-28 16:36:00,69.3,54.8,30.22,North,0,1.7,-999.0,60,-99.99,,,0.00,Acu-Link.com,2013-10-28 20:36:00,
2013-10-28 16:51:00,69.1,55.1,30.22,North,0,0.0,-999.0,61,-99.99,,,0.00,Acu-Link.com,2013-10-28 20:51:00,
2013-10-28 17:06:00,68.2,55.1,30.22,South,180,2.7,-999.0,63,-99.99,,,0.00,Acu-Link.com,2013-10-28 21:06:00,
2013-10-28 17:21:00,68.0,56.2,30.22,South,180,0.0,-999.0,66,-99.99,,,0.00,Acu-Link.com,2013-10-28 21:21:00,
2013-10-28 17:37:00,67.3,56.4,30.22,South,180,0.0,-999.0,68,-99.99,,,0.00,Acu-Link.com,2013-10-28 21:37:00,
2013-10-28 17:52:00,66.4,56.3,30.22,South,180,0.0,-999.0,70,-99.99,,,0.00,Acu-Link.com,2013-10-28 21:52:00,
2013-10-28 18:07:00,65.3,56.8,30.23,South,180,0.0,-999.0,74,-99.99,,,0.00,Acu-Link.com,2013-10-28 22:07:00,
2013-10-28 18:22:00,64.2,56.5,30.23,South,180,0.0,-999.0,76,-99.99,,,0.00,Acu-Link.com,2013-10-28 22:22:00,
2013-10-28 18:37:00,62.8,56.9,30.23,South,180,0.0,-999.0,81,-99.99,,,0.00,Acu-Link.com,2013-10-28 22:37:00,
2013-10-28 18:53:00,61.9,56.7,30.23,South,180,0.0,-999.0,83,-99.99,,,0.00,Acu-Link.com,2013-10-28 22:53:00,
2013-10-28 19:08:00,61.3,56.4,30.24,South,180,0.0,-999.0,84,-99.99,,,0.00,Acu-Link.com,2013-10-28 23:08:00,
2013-10-28 19:23:00,60.8,55.9,30.23,South,180,0.0,-999.0,84,-99.99,,,0.00,Acu-Link.com,2013-10-28 23:23:00,
2013-10-28 19:38:00,60.3,55.8,30.24,South,180,0.0,-999.0,85,-99.99,,,0.00,Acu-Link.com,2013-10-28 23:38:00,
2013-10-28 19:55:00,59.5,55.9,30.24,South,180,0.0,-999.0,88,-99.99,,,0.00,Acu-Link.com,2013-10-28 23:55:00,
2013-10-28 20:10:00,58.5,55.6,30.25,South,180,0.0,-999.0,90,-99.99,,,0.00,Acu-Link.com,2013-10-29 00:10:00,
2013-10-28 20:25:00,57.4,54.8,30.25,South,180,0.0,-999.0,91,-99.99,,,0.00,Acu-Link.com,2013-10-29 00:25:00,
2013-10-28 20:40:00,56.7,54.7,30.25,South,180,0.0,-999.0,93,-99.99,,,0.00,Acu-Link.com,2013-10-29 00:40:00,
2013-10-28 20:55:00,56.1,54.4,30.26,South,180,0.0,-999.0,94,-99.99,,,0.00,Acu-Link.com,2013-10-29 00:55:00,
2013-10-28 21:11:00,56.1,54.4,30.26,South,180,0.0,-999.0,94,-99.99,,,0.00,Acu-Link.com,2013-10-29 01:11:00,
2013-10-28 21:26:00,55.9,54.5,30.26,South,180,0.0,-999.0,95,-99.99,,,0.00,Acu-Link.com,2013-10-29 01:26:00,
2013-10-28 21:41:00,55.6,54.5,30.26,South,180,0.0,-999.0,96,-99.99,,,0.00,Acu-Link.com,2013-10-29 01:41:00,
2013-10-28 21:56:00,55.2,54.1,30.26,South,180,0.0,-999.0,96,-99.99,,,0.00,Acu-Link.com,2013-10-29 01:56:00,
2013-10-28 22:12:00,55.0,53.9,30.27,South,180,0.0,-999.0,96,-99.99,,,0.00,Acu-Link.com,2013-10-29 02:12:00,
2013-10-28 22:27:00,55.0,54.2,30.27,South,180,0.0,-999.0,97,-99.99,,,0.00,Acu-Link.com,2013-10-29 02:27:00,
2013-10-28 22:42:00,55.0,54.4,30.27,South,180,0.0,-999.0,98,-99.99,,,0.00,Acu-Link.com,2013-10-29 02:42:00,
2013-10-28 22:57:00,54.9,54.3,30.27,South,180,0.0,-999.0,98,-99.99,,,0.00,Acu-Link.com,2013-10-29 02:57:00,
2013-10-28 23:12:00,54.7,54.1,30.27,South,180,0.0,-999.0,98,-99.99,,,0.00,Acu-Link.com,2013-10-29 03:12:00,
2013-10-28 23:28:00,54.3,53.7,30.27,South,180,0.0,-999.0,98,-99.99,,,0.00,Acu-Link.com,2013-10-29 03:28:00,
2013-10-28 23:43:00,54.3,54.0,30.27,South,180,0.0,-999.0,99,-99.99,,,0.00,Acu-Link.com,2013-10-29 03:43:00,
2013-10-28 23:58:00,54.1,53.8,30.26,South,180,0.0,-999.0,99,-99.99,,,0.00,Acu-Link.com,2013-10-29 03:58:00,